Time;durP1;ratioP1;P1;durP2;ratioP2;P2;SDS_P1;SDS_P2;PMS_P1;PMS_P2;Temp;Humidity;BMP_temperature;BMP_pressure;BME280_temperature;BME280_humidity;BME280_pressure;Samples;Min_cycle;Max_cycle;Signal;HPM_P1;HPM_P2
2023/09/15 00:00:59;;;;;;;4.10;2.17;;;19.50;99.90;;;;;;5078940;28;20462;-76
2023/09/15 00:03:26;;;;;;;6.05;2.03;;;19.60;99.90;;;;;;5077142;28;20047;-76
2023/09/15 00:05:53;;;;;;;3.58;2.45;;;19.60;99.90;;;;;;5077241;28;20047;-76
2023/09/15 00:08:21;;;;;;;5.07;2.70;;;19.60;99.90;;;;;;5076000;28;20558;-77
2023/09/15 00:10:48;;;;;;;5.85;2.70;;;19.60;99.90;;;;;;5075600;28;20051;-77
2023/09/15 00:13:15;;;;;;;4.88;2.90;;;19.60;99.90;;;;;;5080394;28;20127;-76
2023/09/15 00:15:43;;;;;;;5.65;2.53;;;19.50;99.90;;;;;;5081634;28;20040;-77
2023/09/15 00:18:10;;;;;;;7.00;3.40;;;19.50;99.90;;;;;;5083594;28;22813;-77
2023/09/15 00:20:37;;;;;;;7.03;3.67;;;19.50;99.90;;;;;;5079749;28;20044;-77
2023/09/15 00:23:04;;;;;;;4.55;2.63;;;19.50;99.90;;;;;;5066311;28;20490;-77
2023/09/15 00:25:32;;;;;;;4.97;2.65;;;19.50;99.90;;;;;;5079349;28;20075;-77
2023/09/15 00:28:03;;;;;;;6.20;2.75;;;19.50;99.90;;;;;;5068179;28;20140;-77
2023/09/15 00:30:32;;;;;;;5.22;2.72;;;19.60;99.90;;;;;;5066276;28;20056;-77
2023/09/15 00:32:59;;;;;;;5.63;2.92;;;19.50;99.90;;;;;;5076083;28;20405;-77
2023/09/15 00:35:28;;;;;;;5.88;3.00;;;19.50;99.90;;;;;;5078858;28;20119;-77
2023/09/15 00:37:55;;;;;;;7.82;3.22;;;19.50;99.90;;;;;;5082436;28;20044;-77
2023/09/15 00:40:24;;;;;;;6.85;2.92;;;19.50;99.90;;;;;;5089058;28;20051;-77
2023/09/15 00:42:52;;;;;;;7.10;3.08;;;19.50;99.90;;;;;;5077806;28;20056;-77
2023/09/15 00:45:21;;;;;;;5.10;2.78;;;19.40;99.90;;;;;;5077928;28;20506;-77
2023/09/15 00:47:53;;;;;;;6.25;3.47;;;19.40;99.90;;;;;;5076292;28;20043;-76
2023/09/15 00:50:31;;;;;;;5.97;3.60;;;19.40;99.90;;;;;;5092603;28;20059;-77
2023/09/15 00:53:09;;;;;;;5.75;3.80;;;19.40;99.90;;;;;;5075578;28;20036;-77
2023/09/15 00:55:37;;;;;;;7.82;3.60;;;19.40;99.90;;;;;;5094742;28;20063;-77
2023/09/15 00:58:10;;;;;;;5.88;3.83;;;19.40;99.90;;;;;;5061617;28;20521;-77
2023/09/15 01:00:43;;;;;;;5.82;3.67;;;19.30;99.90;;;;;;5069276;28;20514;-77
2023/09/15 01:03:13;;;;;;;5.63;3.70;;;19.30;99.90;;;;;;5076911;28;20037;-77
2023/09/15 01:05:42;;;;;;;8.25;3.95;;;19.30;99.90;;;;;;5069601;28;20051;-77
2023/09/15 01:08:10;;;;;;;7.10;4.03;;;19.30;99.90;;;;;;5081531;28;20047;-77
2023/09/15 01:10:37;;;;;;;8.05;3.53;;;19.30;99.90;;;;;;5078713;28;20036;-77
2023/09/15 01:13:05;;;;;;;7.20;3.95;;;19.30;99.90;;;;;;5085671;28;20171;-77
2023/09/15 01:15:35;;;;;;;8.63;4.53;;;19.30;99.90;;;;;;5083560;28;20433;-77
2023/09/15 01:18:29;;;;;;;8.82;3.85;;;19.30;99.90;;;;;;5084594;28;20045;-77
2023/09/15 01:21:22;;;;;;;7.57;4.40;;;19.30;99.90;;;;;;5086072;28;20086;-77
2023/09/15 01:24:15;;;;;;;7.95;3.83;;;19.20;99.90;;;;;;5082292;28;20383;-77
2023/09/15 01:26:46;;;;;;;9.10;5.05;;;19.20;99.90;;;;;;5084050;28;20037;-77
2023/09/15 01:29:38;;;;;;;7.63;4.45;;;19.20;99.90;;;;;;5070673;28;20040;-77
2023/09/15 01:32:09;;;;;;;6.57;4.10;;;19.10;99.90;;;;;;5084674;28;20083;-78
2023/09/15 01:34:37;;;;;;;12.55;4.80;;;19.10;99.90;;;;;;5066743;28;20289;-77
2023/09/15 01:37:04;;;;;;;7.55;3.88;;;19.10;99.90;;;;;;5080369;28;20044;-77
2023/09/15 01:39:31;;;;;;;8.10;5.22;;;19.10;99.90;;;;;;5084798;28;20179;-78
2023/09/15 01:41:59;;;;;;;10.73;4.47;;;19.10;99.90;;;;;;5084460;28;20062;-77
2023/09/15 01:44:27;;;;;;;6.82;4.07;;;19.10;99.90;;;;;;5087976;28;20048;-77
2023/09/15 01:46:54;;;;;;;8.02;4.18;;;19.10;99.90;;;;;;5082418;28;20051;-77
2023/09/15 01:49:22;;;;;;;8.35;5.00;;;19.00;99.90;;;;;;5080739;28;20123;-77
2023/09/15 01:51:51;;;;;;;8.93;4.60;;;18.90;99.90;;;;;;5085435;28;20040;-77
2023/09/15 01:54:18;;;;;;;8.50;5.35;;;19.00;99.90;;;;;;5063657;28;20040;-77
2023/09/15 01:56:48;;;;;;;10.73;4.53;;;19.00;99.90;;;;;;5083281;28;20120;-78
2023/09/15 01:59:15;;;;;;;7.40;4.57;;;19.00;99.90;;;;;;5083919;28;20082;-77
2023/09/15 02:01:44;;;;;;;8.98;4.80;;;18.90;99.90;;;;;;5084880;28;20415;-77
2023/09/15 02:04:11;;;;;;;6.95;4.68;;;18.90;99.90;;;;;;5068383;28;20076;-77
2023/09/15 02:06:39;;;;;;;7.28;4.40;;;18.90;99.90;;;;;;5065336;28;20076;-77
2023/09/15 02:09:06;;;;;;;6.45;3.97;;;18.90;99.90;;;;;;5066157;28;20044;-77
2023/09/15 02:11:33;;;;;;;6.18;4.10;;;18.90;99.90;;;;;;5082471;28;20036;-77
2023/09/15 02:14:00;;;;;;;6.05;3.80;;;18.80;99.90;;;;;;5092717;28;20093;-78
2023/09/15 02:16:28;;;;;;;6.40;3.95;;;18.80;99.90;;;;;;5061100;28;20127;-77
2023/09/15 02:18:55;;;;;;;6.90;4.15;;;18.80;99.90;;;;;;5081375;28;20044;-78
2023/09/15 02:21:22;;;;;;;10.68;4.00;;;18.80;99.90;;;;;;5069685;28;20067;-78
2023/09/15 02:23:49;;;;;;;7.50;4.50;;;18.70;99.90;;;;;;5076776;28;20040;-78
2023/09/15 02:26:17;;;;;;;5.97;3.50;;;18.70;99.90;;;;;;5062343;28;20131;-78
2023/09/15 02:28:44;;;;;;;7.15;4.55;;;18.70;99.90;;;;;;5078935;28;20068;-78
2023/09/15 02:31:12;;;;;;;8.35;4.30;;;18.70;99.90;;;;;;5093586;28;22969;-78
2023/09/15 02:33:39;;;;;;;10.38;4.25;;;18.60;99.90;;;;;;5066851;28;20521;-78
2023/09/15 02:36:06;;;;;;;8.13;4.10;;;18.60;99.90;;;;;;5084184;28;20043;-77
2023/09/15 02:38:34;;;;;;;8.02;4.90;;;18.60;99.90;;;;;;5085195;28;20050;-78
2023/09/15 02:41:02;;;;;;;7.15;4.57;;;18.60;99.90;;;;;;5084678;28;20036;-78
2023/09/15 02:43:29;;;;;;;9.60;5.70;;;18.60;99.90;;;;;;5075654;28;20127;-78
2023/09/15 02:46:04;;;;;;;9.32;5.30;;;18.60;99.90;;;;;;5083099;28;20090;-77
2023/09/15 02:48:32;;;;;;;8.55;5.15;;;18.60;99.90;;;;;;5093954;28;20127;-78
2023/09/15 02:51:00;;;;;;;6.93;4.07;;;18.50;99.90;;;;;;5077929;28;20061;-78
2023/09/15 02:53:29;;;;;;;8.63;4.93;;;18.50;99.90;;;;;;5083559;28;20520;-78
2023/09/15 02:56:04;;;;;;;9.18;5.35;;;18.50;99.90;;;;;;5075485;28;20126;-78
2023/09/15 02:58:36;;;;;;;9.65;4.93;;;18.50;99.90;;;;;;5090209;28;20067;-78
2023/09/15 03:01:15;;;;;;;8.20;4.75;;;18.40;99.90;;;;;;5091278;27;20036;-78
2023/09/15 03:03:49;;;;;;;10.18;5.20;;;18.40;99.90;;;;;;5081236;28;22743;-77
2023/09/15 03:06:17;;;;;;;12.40;5.75;;;18.40;99.90;;;;;;5077008;28;20043;-78
2023/09/15 03:08:45;;;;;;;10.30;5.40;;;18.40;99.90;;;;;;5069885;28;20048;-78
2023/09/15 03:11:19;;;;;;;9.52;5.45;;;18.40;99.90;;;;;;5080439;28;22913;-78
2023/09/15 03:13:53;;;;;;;10.10;5.05;;;18.40;99.90;;;;;;5078313;28;20445;-78
2023/09/15 03:16:21;;;;;;;9.35;5.72;;;18.40;99.90;;;;;;5092481;27;20052;-78
2023/09/15 03:18:49;;;;;;;8.68;5.45;;;18.40;99.90;;;;;;5083629;28;20040;-78
2023/09/15 03:21:19;;;;;;;9.35;4.60;;;18.40;99.90;;;;;;5064535;28;20083;-79
2023/09/15 03:23:48;;;;;;;8.73;5.82;;;18.40;99.90;;;;;;5082970;28;20054;-78
2023/09/15 03:26:15;;;;;;;10.20;5.05;;;18.40;99.90;;;;;;5084186;28;20464;-79
2023/09/15 03:28:46;;;;;;;10.25;5.85;;;18.30;99.90;;;;;;5062521;28;20052;-79
2023/09/15 03:31:14;;;;;;;9.93;5.32;;;18.30;99.90;;;;;;5084657;28;20641;-79
2023/09/15 03:33:41;;;;;;;9.80;5.63;;;18.30;99.90;;;;;;5074616;28;21639;-78
2023/09/15 03:36:12;;;;;;;9.55;5.18;;;18.30;99.90;;;;;;5069700;28;20047;-78
2023/09/15 03:38:40;;;;;;;8.82;5.15;;;18.30;99.90;;;;;;5084055;28;20044;-79
2023/09/15 03:41:07;;;;;;;8.27;4.82;;;18.30;99.90;;;;;;5067581;28;20036;-79
2023/09/15 03:43:35;;;;;;;7.50;4.75;;;18.20;99.90;;;;;;5076425;28;20048;-79
2023/09/15 03:46:02;;;;;;;8.90;4.82;;;18.20;99.90;;;;;;5078088;28;20094;-79
2023/09/15 03:48:30;;;;;;;8.50;4.93;;;18.20;99.90;;;;;;5083533;28;20059;-79
2023/09/15 03:50:57;;;;;;;8.70;5.03;;;18.10;99.90;;;;;;5070841;28;20052;-79
2023/09/15 03:53:25;;;;;;;10.32;5.28;;;18.20;99.90;;;;;;5092856;27;20076;-79
2023/09/15 03:55:52;;;;;;;8.65;5.07;;;18.10;99.90;;;;;;5090786;27;20163;-79
2023/09/15 03:58:19;;;;;;;12.20;5.28;;;18.00;99.90;;;;;;5081555;28;20037;-79
2023/09/15 04:00:46;;;;;;;9.68;5.13;;;18.00;99.90;;;;;;5074798;28;20125;-79
2023/09/15 04:03:14;;;;;;;8.13;5.05;;;18.00;99.90;;;;;;5080839;28;20114;-79
2023/09/15 04:05:41;;;;;;;7.63;4.97;;;18.10;99.90;;;;;;5066489;28;20533;-79
2023/09/15 04:08:08;;;;;;;8.90;4.80;;;18.00;99.90;;;;;;5077315;28;20048;-79
2023/09/15 04:10:36;;;;;;;7.93;4.47;;;18.00;99.90;;;;;;5080943;28;20130;-79
2023/09/15 04:13:03;;;;;;;8.75;5.15;;;18.00;99.90;;;;;;5073671;28;20048;-79
2023/09/15 04:15:30;;;;;;;7.47;4.43;;;18.00;99.90;;;;;;5080610;28;20941;-79
2023/09/15 04:17:57;;;;;;;8.50;4.45;;;18.00;99.90;;;;;;5060654;28;20036;-79
2023/09/15 04:20:28;;;;;;;8.25;4.80;;;18.00;99.90;;;;;;5070353;28;22800;-79
2023/09/15 04:23:12;;;;;;;7.88;5.03;;;18.00;99.90;;;;;;5075342;28;20193;-79
2023/09/15 04:25:41;;;;;;;8.77;4.63;;;18.00;99.90;;;;;;5077541;28;20051;-79
2023/09/15 04:28:08;;;;;;;8.13;4.95;;;18.00;99.90;;;;;;5079463;28;20051;-79
2023/09/15 04:30:36;;;;;;;10.13;5.55;;;18.00;99.90;;;;;;5067600;28;20059;-79
2023/09/15 04:33:04;;;;;;;8.63;5.50;;;18.00;99.90;;;;;;5070659;28;20048;-79
2023/09/15 04:35:31;;;;;;;7.50;4.47;;;18.00;99.90;;;;;;5084744;28;20052;-79
2023/09/15 04:37:59;;;;;;;8.35;4.90;;;18.00;99.90;;;;;;5080704;28;20063;-78
2023/09/15 04:40:27;;;;;;;7.05;3.97;;;18.00;99.90;;;;;;5075751;28;20071;-79
2023/09/15 04:42:54;;;;;;;8.75;4.68;;;18.00;99.90;;;;;;5076977;28;20093;-79
2023/09/15 04:45:25;;;;;;;7.25;4.70;;;18.10;99.90;;;;;;5060840;28;20242;-79
2023/09/15 04:47:54;;;;;;;9.77;4.63;;;18.00;99.90;;;;;;5078425;28;20033;-79
2023/09/15 04:50:23;;;;;;;10.23;4.85;;;18.00;99.90;;;;;;5075202;28;20382;-79
2023/09/15 04:52:52;;;;;;;9.20;5.63;;;18.00;99.90;;;;;;5082489;28;20265;-79
2023/09/15 04:55:19;;;;;;;9.57;4.60;;;18.00;99.90;;;;;;5081425;28;20057;-79
2023/09/15 04:57:47;;;;;;;9.35;5.15;;;18.00;99.90;;;;;;5076700;28;20591;-79
2023/09/15 05:00:23;;;;;;;8.40;5.00;;;18.00;99.90;;;;;;5073874;28;20055;-79
2023/09/15 05:02:59;;;;;;;11.40;5.10;;;18.00;99.90;;;;;;5066699;28;20052;-79
2023/09/15 05:05:28;;;;;;;11.27;5.47;;;17.90;99.90;;;;;;5066600;28;20045;-81
2023/09/15 05:07:56;;;;;;;8.85;4.57;;;18.00;99.90;;;;;;5074912;28;20090;-81
2023/09/15 05:10:24;;;;;;;11.73;4.90;;;18.00;99.90;;;;;;5067928;28;20078;-81
2023/09/15 05:12:52;;;;;;;11.00;5.32;;;18.00;99.90;;;;;;5061893;28;20131;-81
2023/09/15 05:15:20;;;;;;;9.65;5.20;;;17.90;99.90;;;;;;5080423;28;20039;-80
2023/09/15 05:17:47;;;;;;;9.30;5.40;;;17.90;99.90;;;;;;5065601;28;20044;-80
2023/09/15 05:20:16;;;;;;;9.48;4.72;;;18.00;99.90;;;;;;5063467;28;20134;-80
2023/09/15 05:22:43;;;;;;;11.25;5.55;;;18.00;99.90;;;;;;5066601;28;20964;-81
2023/09/15 05:25:11;;;;;;;11.77;6.18;;;18.00;99.90;;;;;;5066656;28;20048;-81
2023/09/15 05:27:38;;;;;;;12.65;6.18;;;18.00;99.90;;;;;;5082660;28;20050;-81
2023/09/15 05:30:06;;;;;;;12.32;5.65;;;18.00;99.90;;;;;;5076247;28;20395;-80
2023/09/15 05:32:36;;;;;;;9.07;5.00;;;18.00;99.90;;;;;;5076181;28;20110;-80
2023/09/15 05:35:03;;;;;;;10.30;5.63;;;18.00;99.90;;;;;;5063057;28;20051;-80
2023/09/15 05:37:30;;;;;;;16.13;8.63;;;18.00;99.90;;;;;;5080900;28;20043;-80
2023/09/15 05:39:58;;;;;;;12.38;7.50;;;18.00;99.90;;;;;;5078321;28;20406;-79
2023/09/15 05:42:25;;;;;;;10.93;5.78;;;18.00;99.90;;;;;;5086808;28;20128;-79
2023/09/15 05:44:54;;;;;;;11.15;6.20;;;18.00;99.90;;;;;;5069686;28;20056;-78
2023/09/15 05:47:22;;;;;;;13.27;6.00;;;18.00;99.90;;;;;;5076611;28;20059;-78
2023/09/15 05:49:49;;;;;;;11.10;6.32;;;18.10;99.90;;;;;;5082204;28;20510;-80
2023/09/15 05:52:17;;;;;;;11.73;6.70;;;18.20;99.90;;;;;;5097160;28;20851;-79
2023/09/15 05:54:44;;;;;;;9.63;5.65;;;18.20;99.90;;;;;;5085426;28;20044;-79
2023/09/15 05:57:11;;;;;;;11.98;6.45;;;18.30;99.90;;;;;;5062899;28;20041;-79
2023/09/15 05:59:38;;;;;;;9.52;5.57;;;18.40;99.90;;;;;;5089372;28;20052;-79
2023/09/15 06:02:07;;;;;;;11.00;5.82;;;18.50;99.90;;;;;;5064900;28;20055;-78
2023/09/15 06:04:34;;;;;;;13.25;6.90;;;18.60;99.90;;;;;;5078138;28;20058;-78
2023/09/15 06:07:01;;;;;;;14.82;6.68;;;18.70;99.90;;;;;;5077477;28;20048;-78
2023/09/15 06:09:29;;;;;;;18.08;7.20;;;18.90;99.90;;;;;;5084103;28;20047;-78
2023/09/15 06:11:56;;;;;;;13.18;5.90;;;19.00;99.90;;;;;;5090725;28;20044;-78
2023/09/15 06:14:23;;;;;;;7.75;4.68;;;19.00;99.90;;;;;;5079554;28;20128;-77
2023/09/15 06:16:50;;;;;;;10.07;5.47;;;19.00;99.90;;;;;;5086688;28;20094;-76
2023/09/15 06:19:17;;;;;;;8.63;4.07;;;19.20;99.90;;;;;;5080545;28;20033;-77
2023/09/15 06:21:46;;;;;;;7.07;4.38;;;19.20;99.90;;;;;;5068212;28;20058;-78
2023/09/15 06:24:13;;;;;;;7.93;4.03;;;19.40;99.90;;;;;;5080960;28;20040;-77
2023/09/15 06:26:40;;;;;;;8.73;4.45;;;19.40;99.90;;;;;;5077993;28;20051;-76
2023/09/15 06:29:07;;;;;;;8.63;5.18;;;19.50;99.90;;;;;;5076676;28;20096;-77
2023/09/15 06:31:34;;;;;;;7.88;4.10;;;19.60;99.90;;;;;;5066700;28;20064;-76
2023/09/15 06:34:01;;;;;;;7.28;4.45;;;19.80;99.90;;;;;;5066384;28;20037;-76
2023/09/15 06:36:29;;;;;;;9.05;3.20;;;19.90;99.90;;;;;;5084168;28;20039;-77
2023/09/15 06:38:56;;;;;;;6.50;2.95;;;19.90;99.90;;;;;;5075035;28;20131;-77
2023/09/15 06:41:23;;;;;;;5.43;3.20;;;20.10;99.90;;;;;;5079557;28;20099;-77
2023/09/15 06:43:50;;;;;;;4.85;2.47;;;20.20;99.90;;;;;;5079448;28;20405;-77
2023/09/15 06:46:21;;;;;;;4.43;2.15;;;20.40;99.90;;;;;;5080998;28;20148;-77
2023/09/15 06:48:49;;;;;;;3.38;1.70;;;20.40;99.90;;;;;;5079809;28;20713;-78
2023/09/15 06:51:16;;;;;;;6.50;1.88;;;20.50;99.90;;;;;;5081013;28;20044;-76
2023/09/15 06:53:43;;;;;;;2.85;1.52;;;20.60;99.90;;;;;;5062430;28;20040;-76
2023/09/15 06:56:10;;;;;;;3.65;1.50;;;20.70;99.90;;;;;;5076660;28;20113;-77
2023/09/15 06:58:38;;;;;;;2.05;1.70;;;20.80;99.60;;;;;;5063541;28;20048;-75
2023/09/15 07:01:05;;;;;;;2.10;0.95;;;21.00;99.70;;;;;;5077640;28;20058;-78
2023/09/15 07:03:33;;;;;;;1.50;1.13;;;21.00;97.50;;;;;;5077280;28;20072;-78
2023/09/15 07:06:01;;;;;;;1.27;0.90;;;21.00;96.90;;;;;;5074570;28;20036;-78
2023/09/15 07:08:28;;;;;;;1.92;1.15;;;21.10;97.30;;;;;;5076323;28;20143;-77
2023/09/15 07:10:55;;;;;;;2.10;0.90;;;21.20;96.80;;;;;;5082724;28;20044;-77
2023/09/15 07:13:22;;;;;;;1.60;0.95;;;21.20;96.20;;;;;;5079805;28;20044;-77
2023/09/15 07:15:51;;;;;;;1.92;0.70;;;21.30;95.80;;;;;;5080595;28;20376;-80
2023/09/15 07:18:18;;;;;;;1.45;0.85;;;21.40;94.80;;;;;;5092439;28;20115;-78
2023/09/15 07:20:45;;;;;;;2.72;0.75;;;21.50;94.70;;;;;;5064767;28;20053;-78
2023/09/15 07:23:12;;;;;;;3.17;0.65;;;21.60;93.50;;;;;;5077883;28;20046;-78
2023/09/15 07:25:40;;;;;;;1.73;0.90;;;21.60;93.00;;;;;;5083414;28;20132;-79
2023/09/15 07:28:08;;;;;;;2.60;0.90;;;21.70;92.60;;;;;;5088527;28;20064;-77
2023/09/15 07:30:35;;;;;;;1.05;0.75;;;21.70;92.50;;;;;;5065484;28;20040;-78
2023/09/15 07:33:03;;;;;;;1.58;0.73;;;21.70;91.70;;;;;;5072703;28;20120;-80
2023/09/15 07:35:30;;;;;;;1.60;0.50;;;21.80;91.00;;;;;;5066030;28;20516;-78
2023/09/15 07:37:57;;;;;;;1.00;0.65;;;21.80;91.20;;;;;;5090193;28;20046;-77
2023/09/15 07:40:24;;;;;;;2.80;0.63;;;21.90;90.60;;;;;;5061405;28;20574;-79
2023/09/15 07:42:52;;;;;;;1.40;0.68;;;21.90;90.30;;;;;;5082156;28;20135;-80
2023/09/15 07:45:19;;;;;;;3.53;0.88;;;21.90;90.30;;;;;;5072711;28;20590;-81
2023/09/15 07:47:46;;;;;;;1.45;0.60;;;21.90;89.50;;;;;;5074941;28;20148;-80
2023/09/15 07:50:16;;;;;;;2.17;0.90;;;22.10;89.60;;;;;;5061804;28;20106;-76
2023/09/15 07:52:45;;;;;;;2.42;0.50;;;22.10;88.70;;;;;;5088976;28;20524;-78
2023/09/15 07:55:13;;;;;;;2.88;0.65;;;22.30;89.30;;;;;;5075419;28;22794;-77
2023/09/15 07:57:40;;;;;;;1.30;0.73;;;22.30;88.90;;;;;;5060265;28;20051;-77
2023/09/15 08:00:10;;;;;;;1.08;0.80;;;22.30;89.30;;;;;;5079891;28;20076;-78
2023/09/15 08:02:46;;;;;;;1.85;0.73;;;22.30;88.90;;;;;;5074631;28;20052;-78
2023/09/15 08:05:14;;;;;;;1.20;0.75;;;22.40;88.90;;;;;;5078917;28;20052;-78
2023/09/15 08:07:45;;;;;;;1.10;0.77;;;22.40;88.50;;;;;;5072493;28;20773;-78
2023/09/15 08:10:14;;;;;;;1.42;0.82;;;22.40;87.50;;;;;;5076759;28;20047;-78
2023/09/15 08:12:41;;;;;;;0.90;0.50;;;22.60;89.10;;;;;;5078019;28;20766;-78
2023/09/15 08:15:09;;;;;;;1.33;0.70;;;22.60;86.70;;;;;;5078646;28;20859;-79
2023/09/15 08:17:37;;;;;;;1.95;0.60;;;22.70;87.30;;;;;;5072379;28;20051;-78
2023/09/15 08:20:05;;;;;;;1.05;0.60;;;22.80;86.50;;;;;;5076906;28;20074;-77
2023/09/15 08:22:34;;;;;;;1.63;0.50;;;22.80;85.90;;;;;;5060851;28;20055;-78
2023/09/15 08:25:03;;;;;;;1.80;0.90;;;23.00;86.00;;;;;;5074543;28;20506;-79
2023/09/15 08:27:31;;;;;;;2.58;0.70;;;22.90;84.30;;;;;;5088042;28;21584;-78
2023/09/15 08:29:58;;;;;;;2.33;0.95;;;23.00;85.10;;;;;;5087078;28;20516;-78
2023/09/15 08:32:25;;;;;;;1.48;0.55;;;22.90;84.70;;;;;;5078748;28;20051;-77
2023/09/15 08:34:54;;;;;;;1.85;0.82;;;23.00;85.00;;;;;;5069875;28;20041;-79
2023/09/15 08:37:21;;;;;;;2.17;0.85;;;23.10;85.60;;;;;;5077658;28;22864;-79
2023/09/15 08:39:48;;;;;;;1.73;0.88;;;23.00;84.60;;;;;;5078781;28;20562;-77
2023/09/15 08:42:29;;;;;;;2.08;1.08;;;23.20;85.80;;;;;;5072983;28;20135;-77
2023/09/15 08:44:57;;;;;;;1.00;0.50;;;23.20;85.30;;;;;;5083593;28;20179;-77
2023/09/15 08:47:27;;;;;;;1.05;0.57;;;23.40;85.40;;;;;;5078075;28;20056;-77
2023/09/15 08:49:56;;;;;;;1.13;0.70;;;23.40;84.80;;;;;;5072838;28;20048;-79
2023/09/15 08:52:23;;;;;;;0.98;0.57;;;23.50;84.50;;;;;;5083429;28;20060;-77
2023/09/15 08:54:51;;;;;;;1.08;0.63;;;23.50;83.30;;;;;;5075448;28;20634;-78
2023/09/15 08:57:20;;;;;;;1.30;0.80;;;23.40;82.40;;;;;;5074719;28;20071;-80
2023/09/15 08:59:50;;;;;;;1.42;0.60;;;23.40;81.90;;;;;;5076825;28;20058;-78
2023/09/15 09:02:22;;;;;;;1.10;0.60;;;23.40;82.40;;;;;;5077021;28;20047;-77
2023/09/15 09:04:50;;;;;;;13.88;1.58;;;23.40;81.70;;;;;;5081674;28;20071;-78
2023/09/15 09:07:24;;;;;;;1.10;0.50;;;23.30;82.00;;;;;;5070896;28;20824;-77
2023/09/15 09:09:53;;;;;;;0.77;0.50;;;23.40;80.90;;;;;;5083053;28;20143;-77
2023/09/15 09:12:21;;;;;;;1.15;0.40;;;23.40;80.40;;;;;;5073989;28;20460;-77
2023/09/15 09:14:53;;;;;;;1.42;0.50;;;23.40;80.50;;;;;;5081720;28;20071;-78
2023/09/15 09:17:22;;;;;;;1.33;0.40;;;23.40;80.20;;;;;;5080509;28;20127;-79
2023/09/15 09:19:50;;;;;;;1.00;0.40;;;23.30;79.00;;;;;;5070006;28;20052;-78
2023/09/15 09:22:18;;;;;;;1.05;0.55;;;23.30;79.40;;;;;;5076939;28;20044;-78
2023/09/15 09:24:53;;;;;;;1.33;0.60;;;23.30;78.90;;;;;;5074738;28;20406;-79
2023/09/15 09:27:21;;;;;;;1.38;0.30;;;23.40;79.20;;;;;;5085543;28;20058;-79
2023/09/15 09:29:48;;;;;;;1.50;0.28;;;23.50;77.80;;;;;;5083204;28;20135;-78
2023/09/15 09:32:15;;;;;;;0.80;0.40;;;23.50;77.30;;;;;;5067607;28;20070;-79
2023/09/15 09:34:48;;;;;;;0.90;0.40;;;23.50;77.30;;;;;;5063069;28;20051;-78
2023/09/15 09:37:15;;;;;;;;;;;23.60;78.00;;;;;;5085630;28;20109;-79
2023/09/15 09:39:42;;;;;;;1.33;0.43;;;23.60;77.00;;;;;;5079689;28;19924;-79
2023/09/15 09:42:11;;;;;;;0.90;0.50;;;23.50;77.10;;;;;;5067096;28;20068;-79
2023/09/15 09:44:38;;;;;;;1.15;0.30;;;23.50;77.50;;;;;;5080175;28;20037;-79
2023/09/15 09:47:09;;;;;;;0.80;0.30;;;23.50;76.90;;;;;;5086707;28;20052;-77
2023/09/15 09:49:38;;;;;;;0.82;0.57;;;23.50;76.60;;;;;;5078372;28;20055;-77
2023/09/15 09:52:05;;;;;;;1.45;0.50;;;23.50;76.60;;;;;;5078268;28;20141;-81
2023/09/15 09:54:34;;;;;;;1.05;0.40;;;23.50;77.40;;;;;;5084512;28;20048;-80
2023/09/15 09:57:02;;;;;;;1.45;0.75;;;23.50;77.20;;;;;;5081931;28;20053;-78
2023/09/15 09:59:30;;;;;;;1.10;0.40;;;23.40;76.40;;;;;;5067189;28;20068;-78
2023/09/15 10:01:57;;;;;;;2.08;0.40;;;23.40;77.50;;;;;;5079684;28;20036;-78
2023/09/15 10:04:24;;;;;;;1.00;0.40;;;23.50;77.00;;;;;;5080625;28;20045;-78
2023/09/15 10:06:52;;;;;;;3.28;0.88;;;23.60;77.00;;;;;;5081194;28;20059;-77
2023/09/15 10:09:20;;;;;;;0.90;0.40;;;23.70;76.40;;;;;;5080260;28;20048;-77
2023/09/15 10:11:48;;;;;;;1.50;0.50;;;23.90;78.50;;;;;;5082505;28;20053;-78
2023/09/15 10:14:17;;;;;;;1.55;0.75;;;24.10;77.60;;;;;;5083993;28;20529;-79
2023/09/15 10:16:45;;;;;;;1.17;0.30;;;24.00;76.30;;;;;;5074209;28;20133;-77
2023/09/15 10:19:15;;;;;;;0.80;0.40;;;23.90;75.80;;;;;;5091799;28;20047;-77
2023/09/15 10:21:43;;;;;;;0.90;0.30;;;23.90;74.60;;;;;;5067753;28;20048;-78
2023/09/15 10:24:11;;;;;;;0.60;0.30;;;24.10;75.70;;;;;;5091987;27;20050;-77
2023/09/15 10:26:41;;;;;;;0.50;0.30;;;24.10;75.30;;;;;;5075330;28;20585;-77
2023/09/15 10:29:13;;;;;;;1.15;0.30;;;23.90;73.40;;;;;;5064492;28;20055;-77
2023/09/15 10:31:46;;;;;;;0.85;0.50;;;23.80;74.00;;;;;;5080770;28;20875;-79
2023/09/15 10:34:16;;;;;;;0.93;0.30;;;24.00;75.80;;;;;;5079173;28;20048;-78
2023/09/15 10:36:44;;;;;;;2.47;0.30;;;24.30;75.10;;;;;;5081446;28;22789;-79
2023/09/15 10:39:17;;;;;;;0.90;0.30;;;24.40;74.10;;;;;;5079194;28;20090;-77
2023/09/15 10:41:44;;;;;;;;;;;24.20;74.90;;;;;;5068086;28;20110;-78
2023/09/15 10:44:12;;;;;;;1.23;0.30;;;23.90;75.00;;;;;;5076313;28;19928;-78
2023/09/15 10:46:40;;;;;;;1.02;0.30;;;23.70;74.70;;;;;;5083371;28;20052;-77
2023/09/15 10:49:19;;;;;;;0.52;0.30;;;23.60;75.10;;;;;;5065544;28;20067;-76
2023/09/15 10:51:55;;;;;;;1.15;0.30;;;23.90;75.20;;;;;;5081101;28;22716;-77
2023/09/15 10:54:31;;;;;;;0.70;0.30;;;23.90;75.40;;;;;;5061306;28;20052;-79
2023/09/15 10:57:00;;;;;;;2.08;0.30;;;24.00;74.80;;;;;;5082936;28;20044;-78
2023/09/15 10:59:27;;;;;;;1.73;0.30;;;23.80;75.40;;;;;;5061307;28;20052;-77
2023/09/15 11:01:56;;;;;;;1.25;0.30;;;23.70;75.50;;;;;;5081647;28;20098;-78
2023/09/15 11:04:25;;;;;;;1.67;0.40;;;23.80;76.60;;;;;;5072364;28;20137;-78
2023/09/15 11:06:53;;;;;;;0.68;0.20;;;24.00;75.90;;;;;;5062684;28;23312;-77
2023/09/15 11:09:25;;;;;;;0.60;0.30;;;24.10;75.60;;;;;;5080223;28;20052;-78
2023/09/15 11:11:53;;;;;;;0.80;0.30;;;24.30;75.20;;;;;;5098716;27;20098;-77
2023/09/15 11:14:22;;;;;;;0.75;0.43;;;24.00;74.30;;;;;;5069878;28;20547;-78
2023/09/15 11:16:51;;;;;;;0.50;0.25;;;23.80;76.00;;;;;;5092422;27;20082;-76
2023/09/15 11:19:22;;;;;;;1.00;0.65;;;23.60;75.20;;;;;;5066588;28;20040;-76
2023/09/15 11:21:49;;;;;;;0.65;0.35;;;23.50;75.50;;;;;;5090752;28;20080;-77
2023/09/15 11:24:17;;;;;;;1.40;0.40;;;23.70;77.30;;;;;;5078966;28;20045;-77
2023/09/15 11:26:50;;;;;;;0.80;0.40;;;24.00;76.70;;;;;;5066776;28;20098;-77
2023/09/15 11:29:29;;;;;;;0.88;0.40;;;24.20;76.40;;;;;;5075001;28;20129;-77
2023/09/15 11:31:58;;;;;;;1.75;1.08;;;24.10;76.00;;;;;;5078446;28;20053;-76
2023/09/15 11:34:26;;;;;;;1.63;0.50;;;24.30;78.10;;;;;;5074121;28;20494;-77
2023/09/15 11:36:59;;;;;;;0.77;0.40;;;24.50;77.10;;;;;;5066953;28;20029;-77
2023/09/15 11:39:28;;;;;;;1.38;0.60;;;24.50;76.20;;;;;;5091228;28;20131;-77
2023/09/15 11:41:56;;;;;;;1.38;0.50;;;24.40;75.10;;;;;;5064451;28;20123;-76
2023/09/15 11:44:26;;;;;;;0.75;0.47;;;24.20;74.90;;;;;;5075683;28;20044;-76
2023/09/15 11:46:55;;;;;;;0.60;0.38;;;24.30;75.10;;;;;;5081163;28;20495;-76
2023/09/15 11:49:25;;;;;;;0.80;0.40;;;24.20;73.10;;;;;;5073764;28;20044;-76
2023/09/15 11:51:57;;;;;;;0.70;0.40;;;24.20;73.70;;;;;;5081537;28;20040;-77
2023/09/15 11:54:25;;;;;;;;;;;24.20;75.30;;;;;;5079669;28;20048;-76
2023/09/15 11:56:54;;;;;;;3.00;0.57;;;24.10;75.40;;;;;;5077277;28;19924;-76
2023/09/15 11:59:21;;;;;;;1.77;0.50;;;24.10;75.40;;;;;;5082395;28;20059;-76
2023/09/15 12:01:52;;;;;;;0.93;0.30;;;24.20;75.30;;;;;;5075172;28;20445;-77
2023/09/15 12:04:20;;;;;;;0.65;0.40;;;24.50;75.50;;;;;;5080087;28;20452;-77
2023/09/15 12:06:49;;;;;;;2.40;0.50;;;24.60;74.50;;;;;;5084229;28;20079;-78
2023/09/15 12:09:18;;;;;;;1.70;0.50;;;25.00;74.70;;;;;;5073865;28;21033;-77
2023/09/15 12:11:45;;;;;;;1.20;0.35;;;25.00;73.50;;;;;;5076692;28;20047;-77
2023/09/15 12:14:16;;;;;;;1.08;0.60;;;25.10;73.80;;;;;;5076581;28;21395;-77
2023/09/15 12:16:47;;;;;;;0.88;0.40;;;25.00;73.20;;;;;;5083782;28;20494;-78
2023/09/15 12:19:16;;;;;;;1.88;0.47;;;24.90;74.60;;;;;;5084187;28;22709;-77
2023/09/15 12:21:55;;;;;;;0.70;0.30;;;24.70;73.90;;;;;;5084580;28;20052;-77
2023/09/15 12:24:23;;;;;;;1.75;0.95;;;24.50;73.30;;;;;;5077242;28;20037;-77
2023/09/15 12:26:51;;;;;;;1.60;0.30;;;24.40;73.40;;;;;;5083606;28;20052;-77
2023/09/15 12:29:20;;;;;;;1.23;0.50;;;24.30;73.80;;;;;;5078075;28;20059;-77
2023/09/15 12:31:49;;;;;;;2.17;0.45;;;24.30;74.00;;;;;;5096036;28;20064;-77
2023/09/15 12:34:19;;;;;;;1.05;0.32;;;24.20;74.30;;;;;;5083345;28;20042;-77
2023/09/15 12:36:52;;;;;;;0.93;0.35;;;24.20;75.40;;;;;;5067885;28;20511;-78
2023/09/15 12:39:20;;;;;;;0.60;0.40;;;24.10;75.30;;;;;;5079069;28;20508;-77
2023/09/15 12:42:00;;;;;;;0.60;0.60;;;24.00;75.00;;;;;;5071169;28;20036;-77
2023/09/15 12:44:40;;;;;;;0.80;0.30;;;24.00;75.10;;;;;;5076361;28;20036;-76
2023/09/15 12:47:07;;;;;;;0.98;0.57;;;24.20;75.60;;;;;;5065017;28;20473;-77
2023/09/15 12:49:34;;;;;;;0.68;0.40;;;24.40;76.50;;;;;;5067154;28;20071;-77
2023/09/15 12:52:02;;;;;;;1.65;0.40;;;24.60;75.40;;;;;;5093967;28;20976;-77
2023/09/15 12:54:29;;;;;;;2.53;0.30;;;24.60;74.30;;;;;;5079137;28;20117;-77